Time;durP1;ratioP1;P1;durP2;ratioP2;P2;SDS_P1;SDS_P2;PMS_P1;PMS_P2;Temp;Humidity;BMP_temperature;BMP_pressure;BME280_temperature;BME280_humidity;BME280_pressure;Samples;Min_cycle;Max_cycle;Signal;HPM_P1;HPM_P2
2023/04/28 00:00:56;;;;;;;20.07;17.70;;;7.40;99.90;;;;;;5016785;28;20448;-71
2023/04/28 00:03:25;;;;;;;17.97;16.20;;;7.40;99.90;;;;;;5016868;28;20490;-71
2023/04/28 00:05:53;;;;;;;19.77;17.63;;;7.40;99.90;;;;;;5015287;28;20960;-71
2023/04/28 00:08:24;;;;;;;19.50;17.60;;;7.30;99.90;;;;;;5016714;28;20787;-71
2023/04/28 00:10:52;;;;;;;19.87;17.73;;;7.30;99.90;;;;;;5016859;28;20474;-71
2023/04/28 00:13:21;;;;;;;18.27;16.37;;;7.30;99.90;;;;;;5016575;28;20558;-71
2023/04/28 00:15:52;;;;;;;19.80;17.40;;;7.30;99.90;;;;;;5016694;28;20439;-71
2023/04/28 00:18:22;;;;;;;20.57;17.83;;;7.20;99.90;;;;;;5016476;28;20565;-71
2023/04/28 00:20:50;;;;;;;19.00;17.10;;;7.20;99.90;;;;;;5016856;28;20803;-71
2023/04/28 00:23:18;;;;;;;20.70;18.60;;;7.20;99.90;;;;;;5016342;28;20828;-71
2023/04/28 00:25:51;;;;;;;20.80;18.57;;;7.20;99.90;;;;;;5015202;28;20447;-71
2023/04/28 00:28:19;;;;;;;20.10;18.00;;;7.10;99.90;;;;;;5016345;28;20903;-71
2023/04/28 00:31:00;;;;;;;19.83;17.77;;;7.10;99.90;;;;;;5016237;28;20529;-71
2023/04/28 00:33:30;;;;;;;20.83;18.63;;;7.10;99.90;;;;;;5014566;28;20478;-71
2023/04/28 00:36:01;;;;;;;21.77;19.17;;;7.00;99.90;;;;;;5014652;28;20501;-71
2023/04/28 00:38:31;;;;;;;21.50;19.40;;;7.00;99.90;;;;;;5016222;28;20490;-70
2023/04/28 00:41:00;;;;;;;20.40;18.30;;;7.00;99.90;;;;;;5014464;28;20459;-71
2023/04/28 00:43:28;;;;;;;21.17;19.03;;;6.90;99.90;;;;;;5016022;28;20518;-71
2023/04/28 00:45:56;;;;;;;21.00;18.93;;;6.90;99.90;;;;;;5014663;28;20476;-71
2023/04/28 00:48:26;;;;;;;21.93;19.77;;;6.90;99.90;;;;;;5014388;28;20553;-71
2023/04/28 00:50:56;;;;;;;20.90;18.70;;;6.90;99.90;;;;;;5014411;28;20878;-71
2023/04/28 00:53:25;;;;;;;21.20;19.20;;;6.90;99.90;;;;;;5015581;28;20490;-71
2023/04/28 00:55:55;;;;;;;22.40;20.20;;;6.80;99.90;;;;;;5015528;28;20463;-71
2023/04/28 00:58:24;;;;;;;22.67;20.30;;;6.80;99.90;;;;;;5015651;28;20487;-71
2023/04/28 01:00:53;;;;;;;22.77;20.57;;;6.80;99.90;;;;;;5014725;28;20439;-71
2023/04/28 01:03:21;;;;;;;23.23;20.97;;;6.70;99.90;;;;;;5015085;28;20837;-71
2023/04/28 01:05:50;;;;;;;20.90;18.90;;;6.70;99.90;;;;;;5014089;28;20993;-71
2023/04/28 01:08:23;;;;;;;22.20;20.10;;;6.70;99.90;;;;;;5014052;28;20460;-72
2023/04/28 01:10:52;;;;;;;22.87;20.47;;;6.70;99.90;;;;;;5014064;28;20444;-71
2023/04/28 01:13:37;;;;;;;21.27;19.10;;;6.70;99.90;;;;;;5014047;28;20485;-71
2023/04/28 01:16:07;;;;;;;21.00;18.90;;;6.70;99.90;;;;;;5015196;28;20933;-71
2023/04/28 01:18:35;;;;;;;21.67;19.57;;;6.60;99.90;;;;;;5013920;28;20894;-70
2023/04/28 01:21:04;;;;;;;20.30;18.40;;;6.60;99.90;;;;;;5015132;28;20471;-70
2023/04/28 01:23:35;;;;;;;22.07;19.70;;;6.60;99.90;;;;;;5013997;28;20622;-70
2023/04/28 01:26:04;;;;;;;22.63;20.53;;;6.60;99.90;;;;;;5013867;28;21009;-70
2023/04/28 01:28:33;;;;;;;21.90;19.33;;;6.60;99.90;;;;;;5013730;28;20443;-70
2023/04/28 01:31:01;;;;;;;21.87;19.77;;;6.60;99.90;;;;;;5013667;28;20454;-70
2023/04/28 01:33:30;;;;;;;22.23;19.93;;;6.50;99.90;;;;;;5013441;28;20544;-70
2023/04/28 01:35:58;;;;;;;22.77;20.57;;;6.50;99.90;;;;;;5014949;28;20443;-70
2023/04/28 01:38:27;;;;;;;20.93;18.83;;;6.50;99.90;;;;;;5013359;28;20526;-70
2023/04/28 01:40:55;;;;;;;21.47;19.17;;;6.50;99.90;;;;;;5013522;28;20546;-70
2023/04/28 01:43:25;;;;;;;21.93;19.67;;;6.50;99.90;;;;;;5014567;28;20467;-70
2023/04/28 01:45:53;;;;;;;21.83;19.70;;;6.50;99.90;;;;;;5013497;28;20450;-70
2023/04/28 01:48:22;;;;;;;21.67;19.40;;;6.50;99.90;;;;;;5014384;28;20462;-70
2023/04/28 01:50:50;;;;;;;21.53;19.33;;;6.50;99.90;;;;;;5013233;28;20544;-70
2023/04/28 01:53:19;;;;;;;21.10;18.90;;;6.40;99.90;;;;;;5014429;28;20582;-70
2023/04/28 01:55:50;;;;;;;22.13;20.03;;;6.40;99.90;;;;;;5013398;28;20952;-70
2023/04/28 01:58:20;;;;;;;21.47;19.37;;;6.40;99.90;;;;;;5013533;28;20475;-70
2023/04/28 02:00:49;;;;;;;21.80;19.70;;;6.30;99.90;;;;;;5014325;28;20926;-71
2023/04/28 02:03:20;;;;;;;21.03;18.83;;;6.40;99.90;;;;;;5012982;28;20469;-71
2023/04/28 02:05:49;;;;;;;22.30;20.10;;;6.30;99.90;;;;;;5013002;28;20474;-71
2023/04/28 02:08:17;;;;;;;22.40;18.83;;;6.30;99.90;;;;;;5013234;28;20449;-70
2023/04/28 02:10:45;;;;;;;21.30;19.20;;;6.30;99.90;;;;;;5013603;28;20440;-72
2023/04/28 02:13:13;;;;;;;22.00;19.63;;;6.30;99.90;;;;;;5012189;28;20973;-71
2023/04/28 02:15:42;;;;;;;20.30;18.30;;;6.30;99.90;;;;;;5013086;28;20935;-71
2023/04/28 02:18:11;;;;;;;21.33;19.13;;;6.30;99.90;;;;;;5014101;28;20534;-71
2023/04/28 02:20:40;;;;;;;20.43;18.03;;;6.20;99.90;;;;;;5014508;28;20516;-71
2023/04/28 02:23:09;;;;;;;21.97;19.80;;;6.20;99.90;;;;;;5014208;28;20464;-71
2023/04/28 02:25:37;;;;;;;20.20;18.10;;;6.20;99.90;;;;;;5014166;28;20440;-71
2023/04/28 02:28:06;;;;;;;20.13;18.07;;;6.20;99.90;;;;;;5012663;28;20484;-71
2023/04/28 02:30:35;;;;;;;21.03;18.83;;;6.20;99.90;;;;;;5014076;28;20971;-71
2023/04/28 02:33:03;;;;;;;21.13;19.00;;;6.10;99.90;;;;;;5014016;28;20455;-71
2023/04/28 02:35:33;;;;;;;20.87;18.63;;;6.10;99.90;;;;;;5014254;28;20955;-71
2023/04/28 02:38:01;;;;;;;19.60;16.70;;;6.10;99.90;;;;;;5012431;28;20488;-71
2023/04/28 02:40:30;;;;;;;19.37;17.37;;;6.10;99.90;;;;;;5012243;28;20500;-71
2023/04/28 02:42:58;;;;;;;22.10;18.40;;;6.10;99.90;;;;;;5012473;28;20563;-71
2023/04/28 02:45:26;;;;;;;20.80;18.80;;;6.10;99.90;;;;;;5013947;28;20519;-71
2023/04/28 02:47:54;;;;;;;21.03;18.93;;;6.10;99.90;;;;;;5013561;28;20479;-71
2023/04/28 02:50:23;;;;;;;20.60;18.47;;;6.10;99.90;;;;;;5013745;28;20494;-71
2023/04/28 02:52:52;;;;;;;19.37;17.37;;;6.00;99.90;;;;;;5013327;28;20440;-71
2023/04/28 02:55:23;;;;;;;20.53;17.63;;;6.00;99.90;;;;;;5013424;28;20497;-71
2023/04/28 02:57:52;;;;;;;20.27;18.07;;;6.00;99.90;;;;;;5012434;28;20452;-71
2023/04/28 03:00:21;;;;;;;19.50;16.63;;;6.00;99.90;;;;;;5011993;28;20471;-71
2023/04/28 03:02:50;;;;;;;18.57;16.60;;;6.00;99.90;;;;;;5012093;28;20541;-71
2023/04/28 03:05:19;;;;;;;18.77;16.70;;;5.90;99.90;;;;;;5011998;28;20455;-71
2023/04/28 03:07:47;;;;;;;18.30;16.30;;;5.90;99.90;;;;;;5013211;28;20506;-71
2023/04/28 03:10:16;;;;;;;18.57;16.67;;;5.90;99.90;;;;;;5013086;28;20447;-71
2023/04/28 03:12:44;;;;;;;16.97;15.17;;;5.90;99.90;;;;;;5014903;28;20439;-71
2023/04/28 03:15:12;;;;;;;19.60;16.23;;;5.90;99.90;;;;;;5013815;28;20450;-71
2023/04/28 03:17:42;;;;;;;16.77;15.17;;;5.90;99.90;;;;;;5018855;28;20454;-71
2023/04/28 03:20:11;;;;;;;19.03;17.20;;;5.80;99.90;;;;;;5016776;28;20464;-71
2023/04/28 03:22:40;;;;;;;18.40;16.50;;;5.80;99.90;;;;;;5014401;28;20863;-71
2023/04/28 03:25:08;;;;;;;16.57;14.77;;;5.80;99.90;;;;;;5018903;28;20549;-71
2023/04/28 03:27:47;;;;;;;17.60;14.40;;;5.80;99.90;;;;;;5017537;28;20447;-71
2023/04/28 03:30:15;;;;;;;17.73;15.83;;;5.80;99.90;;;;;;5016296;28;20995;-71
2023/04/28 03:32:43;;;;;;;15.73;14.03;;;5.80;99.90;;;;;;5016003;28;20980;-71
2023/04/28 03:35:11;;;;;;;15.30;13.80;;;5.80;99.90;;;;;;5015835;28;20458;-71
2023/04/28 03:37:40;;;;;;;16.53;14.83;;;5.80;99.90;;;;;;5016451;28;20534;-71
2023/04/28 03:40:09;;;;;;;17.83;15.50;;;5.80;99.90;;;;;;5015735;28;20472;-70
2023/04/28 03:42:59;;;;;;;15.17;13.60;;;5.80;99.90;;;;;;5016317;28;20486;-71
2023/04/28 03:45:34;;;;;;;15.50;14.00;;;5.70;99.90;;;;;;5015793;28;20447;-71
2023/04/28 03:48:02;;;;;;;15.53;13.90;;;5.70;99.90;;;;;;5016764;28;20456;-70
2023/04/28 03:50:30;;;;;;;17.33;14.17;;;5.70;99.90;;;;;;5016871;28;20435;-70
2023/04/28 03:52:59;;;;;;;15.90;14.20;;;5.70;99.90;;;;;;5016285;28;20449;-70
2023/04/28 03:55:27;;;;;;;16.60;15.00;;;5.70;99.90;;;;;;5015068;28;20440;-70
2023/04/28 03:57:56;;;;;;;15.73;13.93;;;5.70;99.90;;;;;;5015361;28;20459;-70
2023/04/28 04:00:25;;;;;;;15.87;14.27;;;5.70;99.90;;;;;;5015034;28;20526;-70
2023/04/28 04:02:54;;;;;;;15.60;14.00;;;5.70;99.90;;;;;;5016123;28;20863;-70
2023/04/28 04:05:23;;;;;;;14.40;12.90;;;5.70;99.90;;;;;;5014994;28;20452;-70
2023/04/28 04:07:53;;;;;;;16.03;14.33;;;5.70;99.90;;;;;;5015097;28;20440;-70
2023/04/28 04:10:21;;;;;;;15.97;14.30;;;5.70;99.90;;;;;;5015035;28;20443;-70
2023/04/28 04:12:50;;;;;;;15.37;13.77;;;5.70;99.90;;;;;;5014901;28;20455;-71
2023/04/28 04:15:18;;;;;;;15.27;13.73;;;5.70;99.90;;;;;;5014866;28;20459;-70
2023/04/28 04:17:50;;;;;;;14.63;12.83;;;5.70;99.90;;;;;;5014967;28;20448;-70
2023/04/28 04:20:21;;;;;;;14.27;12.67;;;5.70;99.90;;;;;;5014698;28;20552;-70
2023/04/28 04:22:49;;;;;;;14.30;12.90;;;5.70;99.90;;;;;;5014899;28;20823;-70
2023/04/28 04:25:17;;;;;;;16.60;13.37;;;5.70;99.90;;;;;;5015874;28;20452;-71
2023/04/28 04:27:48;;;;;;;14.60;12.73;;;5.70;99.90;;;;;;5014751;28;20534;-70
2023/04/28 04:30:16;;;;;;;13.73;12.33;;;5.70;99.90;;;;;;5014544;28;20475;-70
2023/04/28 04:32:44;;;;;;;14.67;13.10;;;5.70;99.90;;;;;;5014712;28;20451;-71
2023/04/28 04:35:14;;;;;;;16.13;12.30;;;5.80;99.90;;;;;;5013371;28;20452;-71
2023/04/28 04:37:42;;;;;;;12.87;11.40;;;5.70;99.90;;;;;;5014681;28;20444;-71
2023/04/28 04:40:11;;;;;;;13.10;11.60;;;5.70;99.90;;;;;;5014296;28;20476;-71
2023/04/28 04:42:47;;;;;;;11.80;10.50;;;5.80;99.90;;;;;;5014309;28;20449;-71
2023/04/28 04:45:20;;;;;;;12.47;11.20;;;5.80;99.90;;;;;;5014345;28;20526;-71
2023/04/28 04:47:50;;;;;;;12.87;11.13;;;5.80;99.90;;;;;;5014407;28;20464;-71
2023/04/28 04:50:19;;;;;;;12.80;11.53;;;5.80;99.90;;;;;;5014410;28;20466;-70
2023/04/28 04:52:48;;;;;;;13.07;10.93;;;5.80;99.90;;;;;;5014062;28;20539;-71
2023/04/28 04:55:16;;;;;;;11.83;10.20;;;5.90;99.90;;;;;;5014123;28;20476;-70
2023/04/28 04:57:44;;;;;;;12.17;10.87;;;5.90;99.90;;;;;;5014025;28;20986;-70
2023/04/28 05:00:36;;;;;;;13.00;11.00;;;5.90;99.90;;;;;;5007440;28;20467;-71
2023/04/28 05:03:05;;;;;;;12.63;10.87;;;5.90;99.90;;;;;;5014024;28;20468;-70
2023/04/28 05:05:34;;;;;;;13.57;12.10;;;5.90;99.90;;;;;;5013870;28;20452;-70
2023/04/28 05:08:09;;;;;;;10.73;9.63;;;6.00;99.90;;;;;;5014196;28;20460;-70
2023/04/28 05:10:37;;;;;;;11.13;10.00;;;6.00;99.90;;;;;;5013964;28;20809;-70
2023/04/28 05:13:06;;;;;;;11.27;9.80;;;6.00;99.90;;;;;;5013672;28;20467;-70
2023/04/28 05:15:35;;;;;;;12.77;10.57;;;6.10;99.90;;;;;;5013624;28;20452;-70
2023/04/28 05:18:21;;;;;;;10.83;9.43;;;6.20;99.90;;;;;;5015435;28;20829;-71
2023/04/28 05:20:51;;;;;;;13.17;10.17;;;6.20;99.90;;;;;;5013518;28;20468;-70
2023/04/28 05:23:19;;;;;;;10.07;8.43;;;6.30;99.90;;;;;;5013617;28;20964;-70
2023/04/28 05:25:48;;;;;;;14.00;8.87;;;6.30;99.90;;;;;;5013572;28;20456;-70
2023/04/28 05:28:16;;;;;;;12.20;10.90;;;6.30;99.90;;;;;;5013293;28;20457;-70
2023/04/28 05:30:47;;;;;;;14.40;8.47;;;6.40;99.90;;;;;;5013463;28;20546;-70
2023/04/28 05:33:15;;;;;;;9.73;8.70;;;6.50;99.90;;;;;;5013108;28;20468;-70
2023/04/28 05:35:44;;;;;;;9.33;8.43;;;6.50;99.90;;;;;;5014448;28;20440;-70
2023/04/28 05:38:13;;;;;;;9.80;8.30;;;6.60;99.90;;;;;;5013363;28;20442;-70
2023/04/28 05:40:43;;;;;;;11.00;8.00;;;6.70;99.90;;;;;;5013351;28;20472;-70
2023/04/28 05:43:13;;;;;;;9.73;7.20;;;6.70;99.90;;;;;;5013803;28;20477;-70
2023/04/28 05:45:41;;;;;;;8.00;7.20;;;6.80;99.90;;;;;;5016318;28;20453;-71
2023/04/28 05:48:10;;;;;;;8.40;7.10;;;6.90;99.90;;;;;;5016212;28;20510;-70
2023/04/28 05:50:40;;;;;;;9.20;7.70;;;7.00;99.90;;;;;;5014655;28;20436;-70
2023/04/28 05:53:10;;;;;;;10.37;7.97;;;7.10;99.90;;;;;;5014763;28;20501;-71
2023/04/28 05:55:39;;;;;;;7.83;6.90;;;7.10;99.90;;;;;;5014237;28;20478;-70
2023/04/28 05:58:08;;;;;;;9.47;7.20;;;7.30;99.90;;;;;;5014523;28;20455;-70
2023/04/28 06:00:36;;;;;;;8.93;6.93;;;7.40;99.90;;;;;;5014510;28;20532;-71
2023/04/28 06:03:04;;;;;;;9.47;6.57;;;7.50;99.90;;;;;;5016064;28;20487;-71
2023/04/28 06:05:33;;;;;;;7.67;6.53;;;7.60;99.90;;;;;;5018355;28;20452;-70
2023/04/28 06:08:02;;;;;;;7.33;6.30;;;7.60;99.90;;;;;;5015316;28;20439;-70
2023/04/28 06:10:31;;;;;;;10.00;6.53;;;7.70;99.90;;;;;;5014815;28;20437;-70
2023/04/28 06:13:03;;;;;;;8.63;7.13;;;7.80;99.90;;;;;;5020036;28;20436;-70
2023/04/28 06:15:31;;;;;;;8.20;6.50;;;7.80;99.90;;;;;;5017470;28;20480;-71
2023/04/28 06:18:00;;;;;;;8.93;5.90;;;7.90;99.90;;;;;;5016471;28;20477;-70
2023/04/28 06:20:29;;;;;;;7.27;6.10;;;7.90;99.90;;;;;;5019965;28;21024;-70
2023/04/28 06:22:57;;;;;;;6.80;5.70;;;7.90;99.90;;;;;;5018276;28;20444;-70
2023/04/28 06:25:25;;;;;;;8.87;7.30;;;8.00;99.90;;;;;;5018207;28;20457;-70
2023/04/28 06:27:54;;;;;;;8.53;7.00;;;8.10;99.90;;;;;;5019026;28;20490;-70
2023/04/28 06:30:24;;;;;;;8.73;6.13;;;8.30;99.90;;;;;;5021704;28;20462;-70
2023/04/28 06:32:52;;;;;;;7.50;6.10;;;8.40;99.90;;;;;;5020538;28;20436;-70
2023/04/28 06:35:20;;;;;;;7.83;6.40;;;8.40;99.90;;;;;;5020220;28;20436;-70
2023/04/28 06:37:49;;;;;;;8.10;6.07;;;8.50;99.90;;;;;;5019050;28;20440;-70
2023/04/28 06:40:17;;;;;;;7.30;5.77;;;8.70;99.90;;;;;;5017244;28;20466;-70
2023/04/28 06:42:53;;;;;;;9.93;6.00;;;8.80;99.90;;;;;;5017383;28;20451;-70
2023/04/28 06:45:30;;;;;;;8.53;6.83;;;9.00;99.90;;;;;;5018824;28;20466;-70
2023/04/28 06:47:58;;;;;;;7.63;6.43;;;9.10;99.90;;;;;;5018994;28;20454;-70
2023/04/28 06:50:27;;;;;;;7.87;6.70;;;9.30;99.90;;;;;;5017858;28;20946;-70
2023/04/28 06:52:55;;;;;;;7.27;6.40;;;9.30;99.90;;;;;;5017505;28;20813;-70
2023/04/28 06:55:23;;;;;;;9.00;6.53;;;9.40;99.90;;;;;;5015875;28;20452;-70
2023/04/28 06:57:51;;;;;;;8.53;6.43;;;9.40;99.90;;;;;;5013587;28;20479;-70
2023/04/28 07:00:20;;;;;;;7.50;6.70;;;9.40;99.90;;;;;;5015427;28;20439;-71
2023/04/28 07:02:49;;;;;;;11.10;6.30;;;9.40;99.90;;;;;;5017611;28;20464;-70
2023/04/28 07:05:22;;;;;;;7.10;6.40;;;9.50;99.90;;;;;;5016587;28;20487;-71
2023/04/28 07:07:50;;;;;;;12.23;6.50;;;9.50;99.90;;;;;;5015125;28;20467;-70
2023/04/28 07:10:18;;;;;;;7.57;6.20;;;9.50;99.90;;;;;;5015774;28;20440;-70
2023/04/28 07:12:46;;;;;;;9.67;6.70;;;9.50;99.90;;;;;;5016259;28;20535;-70
2023/04/28 07:15:14;;;;;;;8.77;5.87;;;9.50;99.90;;;;;;5015407;28;20444;-70
2023/04/28 07:17:42;;;;;;;9.03;7.03;;;9.60;99.90;;;;;;5014992;28;20436;-71
2023/04/28 07:20:14;;;;;;;8.43;6.63;;;9.60;99.90;;;;;;5015043;28;20447;-70
2023/04/28 07:22:42;;;;;;;8.17;6.90;;;9.60;99.90;;;;;;5015817;28;20455;-71
2023/04/28 07:25:11;;;;;;;6.57;5.87;;;9.70;99.90;;;;;;5015368;28;20950;-70
2023/04/28 07:27:39;;;;;;;8.40;6.90;;;9.70;99.90;;;;;;5015007;28;20507;-70
2023/04/28 07:30:08;;;;;;;8.30;6.50;;;9.80;99.90;;;;;;5014538;28;20975;-70
2023/04/28 07:32:54;;;;;;;8.03;6.57;;;9.90;99.90;;;;;;5014905;28;20889;-70
2023/04/28 07:35:24;;;;;;;10.47;6.93;;;10.00;99.90;;;;;;5015821;28;20443;-70
2023/04/28 07:37:53;;;;;;;7.57;6.63;;;10.10;99.90;;;;;;5015932;28;20431;-70
2023/04/28 07:40:21;;;;;;;9.63;7.87;;;10.10;99.90;;;;;;5015431;28;20440;-70
2023/04/28 07:42:50;;;;;;;8.83;7.20;;;10.10;99.90;;;;;;5015911;28;20562;-71
2023/04/28 07:45:18;;;;;;;8.37;7.50;;;10.20;99.90;;;;;;5015490;28;20444;-70
2023/04/28 07:47:47;;;;;;;8.53;7.63;;;10.20;99.90;;;;;;5015423;28;20459;-70
2023/04/28 07:50:16;;;;;;;9.03;7.63;;;10.30;99.90;;;;;;5013925;28;20471;-70
2023/04/28 07:52:45;;;;;;;8.67;7.33;;;10.30;99.90;;;;;;5013991;28;20542;-71
2023/04/28 07:55:13;;;;;;;8.10;6.73;;;10.40;99.90;;;;;;5015407;28;20432;-70
2023/04/28 07:57:42;;;;;;;10.20;7.80;;;10.50;99.90;;;;;;5015612;28;20458;-70
2023/04/28 08:00:10;;;;;;;9.10;8.13;;;10.60;99.90;;;;;;5015409;28;20446;-70
2023/04/28 08:02:39;;;;;;;8.97;7.53;;;10.70;99.90;;;;;;5015227;28;20467;-71
2023/04/28 08:05:08;;;;;;;9.07;8.00;;;10.80;99.90;;;;;;5015178;28;20807;-70
2023/04/28 08:07:38;;;;;;;9.40;8.43;;;10.90;99.90;;;;;;5014798;28;20438;-70
2023/04/28 08:10:09;;;;;;;8.20;7.40;;;11.00;99.90;;;;;;5018317;28;20443;-70
2023/04/28 08:12:37;;;;;;;13.03;8.47;;;11.10;99.90;;;;;;5018056;28;20475;-70
2023/04/28 08:15:06;;;;;;;9.27;8.33;;;11.10;99.90;;;;;;5018743;28;20850;-70
2023/04/28 08:17:35;;;;;;;8.50;7.70;;;11.20;99.90;;;;;;5018595;28;20482;-70
2023/04/28 08:20:04;;;;;;;10.20;7.13;;;11.20;99.90;;;;;;5018367;28;20432;-71
2023/04/28 08:22:32;;;;;;;11.53;8.63;;;11.20;99.90;;;;;;5018470;28;20833;-71
2023/04/28 08:25:00;;;;;;;10.43;8.37;;;11.30;99.90;;;;;;5017776;28;20460;-71
2023/04/28 08:27:32;;;;;;;10.43;7.83;;;11.30;99.90;;;;;;5018095;28;20542;-71
2023/04/28 08:30:01;;;;;;;10.93;8.17;;;11.40;99.90;;;;;;5018397;28;20847;-70
2023/04/28 08:32:29;;;;;;;10.00;7.90;;;11.50;99.90;;;;;;5018246;28;20440;-71
2023/04/28 08:34:57;;;;;;;9.77;8.20;;;11.60;99.90;;;;;;5017632;28;20517;-70
2023/04/28 08:37:26;;;;;;;9.60;8.37;;;11.70;99.90;;;;;;5018315;28;20440;-71
2023/04/28 08:40:00;;;;;;;9.57;8.60;;;11.70;99.90;;;;;;5018084;28;20947;-71
2023/04/28 08:42:31;;;;;;;9.67;8.67;;;11.80;99.90;;;;;;5017992;28;20829;-70
2023/04/28 08:44:59;;;;;;;11.63;8.60;;;11.80;99.90;;;;;;5017755;28;20555;-71
2023/04/28 08:47:33;;;;;;;10.33;9.33;;;11.80;99.90;;;;;;5016909;28;20454;-69
2023/04/28 08:50:04;;;;;;;10.07;8.90;;;12.00;99.90;;;;;;5018918;28;20420;-71
2023/04/28 08:52:33;;;;;;;10.30;9.30;;;12.00;99.90;;;;;;5017894;28;20431;-70
2023/04/28 08:55:06;;;;;;;9.47;8.57;;;12.10;99.90;;;;;;5017638;28;20459;-71
2023/04/28 08:57:39;;;;;;;9.23;8.33;;;12.20;99.90;;;;;;5018345;28;20844;-71
2023/04/28 09:00:09;;;;;;;11.33;8.50;;;12.20;99.90;;;;;;5017636;28;20429;-71
2023/04/28 09:02:40;;;;;;;10.70;8.00;;;12.30;99.90;;;;;;5017143;28;20836;-71
2023/04/28 09:05:10;;;;;;;13.70;9.20;;;12.30;99.90;;;;;;5018152;28;20420;-70
2023/04/28 09:07:39;;;;;;;12.37;8.93;;;12.30;99.90;;;;;;5017213;28;20471;-70
2023/04/28 09:10:21;;;;;;;9.77;8.77;;;12.40;99.90;;;;;;5017204;28;20922;-70
2023/04/28 09:12:53;;;;;;;10.70;9.40;;;12.40;99.90;;;;;;5015903;28;20535;-70
2023/04/28 09:15:31;;;;;;;10.27;9.27;;;12.40;99.90;;;;;;5017483;28;20416;-70
2023/04/28 09:18:02;;;;;;;9.83;8.77;;;12.40;99.90;;;;;;5017531;28;20458;-70
2023/04/28 09:20:32;;;;;;;9.33;8.43;;;12.50;99.90;;;;;;5016208;28;20432;-71
2023/04/28 09:23:16;;;;;;;12.00;8.10;;;12.50;99.90;;;;;;5016529;28;20493;-70
2023/04/28 09:25:58;;;;;;;9.60;8.27;;;12.50;99.90;;;;;;5015081;28;20525;-70
2023/04/28 09:28:28;;;;;;;10.20;8.97;;;12.60;99.90;;;;;;5017082;28;20416;-71
2023/04/28 09:30:56;;;;;;;11.40;9.00;;;12.60;99.90;;;;;;5015522;28;20938;-71
2023/04/28 09:33:25;;;;;;;10.50;8.30;;;12.70;99.90;;;;;;5016233;28;20892;-70
2023/04/28 09:35:54;;;;;;;10.93;9.07;;;12.80;99.90;;;;;;5016580;28;20444;-70
2023/04/28 09:38:23;;;;;;;10.83;9.77;;;12.80;99.90;;;;;;5020407;28;20432;-71
2023/04/28 09:40:52;;;;;;;12.23;9.70;;;12.90;99.90;;;;;;5019837;28;20471;-70
2023/04/28 09:43:30;;;;;;;10.17;9.00;;;13.00;99.90;;;;;;5018809;28;20479;-71
2023/04/28 09:45:59;;;;;;;11.77;9.20;;;13.10;99.90;;;;;;5018982;28;20435;-71
2023/04/28 09:48:29;;;;;;;9.97;8.77;;;13.10;99.90;;;;;;5014710;28;20525;-71
2023/04/28 09:50:58;;;;;;;11.07;9.60;;;13.20;99.90;;;;;;5015137;28;20451;-71
2023/04/28 09:53:27;;;;;;;11.43;9.33;;;13.30;99.90;;;;;;5015940;28;20458;-70
2023/04/28 09:55:58;;;;;;;10.53;9.50;;;13.30;99.90;;;;;;5016024;28;20456;-71
2023/04/28 09:58:31;;;;;;;11.77;9.63;;;13.40;99.90;;;;;;5016213;28;20428;-71
2023/04/28 10:01:00;;;;;;;10.57;9.50;;;13.40;99.90;;;;;;5015732;28;20454;-71
2023/04/28 10:03:30;;;;;;;12.00;9.53;;;13.50;99.90;;;;;;5015031;28;20483;-70
2023/04/28 10:05:59;;;;;;;10.67;9.63;;;13.50;99.90;;;;;;5016052;28;20420;-70
2023/04/28 10:08:28;;;;;;;12.27;10.40;;;13.60;99.90;;;;;;5015834;28;20432;-71
2023/04/28 10:10:57;;;;;;;13.53;10.10;;;13.60;99.90;;;;;;5015818;28;20452;-72
2023/04/28 10:13:26;;;;;;;12.00;9.80;;;13.70;99.90;;;;;;5013784;28;21045;-71
2023/04/28 10:15:57;;;;;;;10.70;9.27;;;13.80;99.90;;;;;;5014562;28;20447;-71
2023/04/28 10:18:26;;;;;;;10.87;9.80;;;13.90;99.90;;;;;;5014792;28;20420;-70
2023/04/28 10:20:59;;;;;;;11.20;9.87;;;14.00;99.90;;;;;;5014608;28;20804;-71
2023/04/28 10:23:47;;;;;;;13.27;9.90;;;14.00;99.90;;;;;;5014704;28;20479;-71
2023/04/28 10:26:18;;;;;;;11.17;10.07;;;14.00;99.90;;;;;;5014661;28;20916;-71
2023/04/28 10:28:47;;;;;;;13.70;9.47;;;14.10;99.90;;;;;;5012947;28;20818;-71
2023/04/28 10:31:19;;;;;;;13.07;10.07;;;14.10;99.90;;;;;;5014758;28;20544;-71
2023/04/28 10:33:48;;;;;;;12.80;10.27;;;14.10;99.90;;;;;;5013135;28;20456;-71
2023/04/28 10:36:47;;;;;;;11.77;10.40;;;14.10;99.90;;;;;;5014710;28;20443;-71
2023/04/28 10:39:15;;;;;;;11.17;10.07;;;14.10;99.90;;;;;;5014190;28;20785;-71
2023/04/28 10:41:45;;;;;;;12.27;11.07;;;14.10;99.90;;;;;;5013091;28;20828;-71
2023/04/28 10:44:42;;;;;;;11.63;10.43;;;14.00;99.90;;;;;;5013901;28;21117;-71
2023/04/28 10:47:12;;;;;;;13.43;10.07;;;14.00;99.90;;;;;;5012817;28;20773;-71
2023/04/28 10:50:08;;;;;;;12.30;11.13;;;13.90;99.90;;;;;;5012448;28;20448;-71
2023/04/28 10:52:51;;;;;;;17.33;11.60;;;13.90;99.90;;;;;;5012643;28;20452;-71
2023/04/28 10:55:31;;;;;;;11.87;10.67;;;14.00;99.90;;;;;;5013881;28;20433;-71
2023/04/28 10:58:31;;;;;;;12.47;11.17;;;14.00;99.90;;;;;;5013958;28;20895;-70
2023/04/28 11:01:25;;;;;;;11.40;10.23;;;14.00;99.90;;;;;;5014717;28;20981;-70
2023/04/28 11:04:01;;;;;;;13.83;11.80;;;14.00;99.90;;;;;;5012991;28;20475;-70
2023/04/28 11:06:33;;;;;;;12.03;10.97;;;14.00;99.90;;;;;;5014814;28;20424;-70
2023/04/28 11:09:02;;;;;;;10.80;9.77;;;14.00;99.90;;;;;;5013864;28;20406;-71
2023/04/28 11:11:33;;;;;;;12.07;10.97;;;14.10;99.90;;;;;;5014264;28;20535;-70
2023/04/28 11:14:33;;;;;;;11.37;10.27;;;14.10;99.90;;;;;;5013874;28;20811;-70
2023/04/28 11:17:03;;;;;;;13.17;11.13;;;14.20;99.90;;;;;;5013903;28;20444;-74
2023/04/28 11:19:33;;;;;;;13.47;12.13;;;14.20;99.90;;;;;;5014179;28;20458;-71
2023/04/28 11:22:03;;;;;;;13.20;10.63;;;14.20;99.90;;;;;;5014091;28;20431;-71
2023/04/28 11:24:31;;;;;;;12.77;11.57;;;14.20;99.90;;;;;;5013765;28;20476;-71
2023/04/28 11:27:01;;;;;;;14.87;13.47;;;14.20;99.90;;;;;;5013751;28;20512;-70
2023/04/28 11:29:34;;;;;;;16.87;15.20;;;14.30;99.90;;;;;;5013789;28;20514;-71
2023/04/28 11:32:03;;;;;;;13.93;12.50;;;14.30;99.90;;;;;;5013852;28;20416;-71
2023/04/28 11:34:34;;;;;;;14.50;13.17;;;14.30;99.90;;;;;;5013574;28;20487;-71
2023/04/28 11:37:04;;;;;;;12.73;11.53;;;14.30;99.90;;;;;;5014250;28;20559;-71
2023/04/28 11:39:34;;;;;;;12.30;11.10;;;14.30;99.90;;;;;;5013974;28;20451;-71
2023/04/28 11:42:10;;;;;;;14.60;13.00;;;14.20;99.90;;;;;;5013831;28;20474;-71
2023/04/28 11:44:38;;;;;;;15.30;13.73;;;14.20;99.90;;;;;;5015724;28;20506;-71
2023/04/28 11:47:07;;;;;;;15.97;14.37;;;14.20;99.90;;;;;;5017409;28;20444;-71
2023/04/28 11:49:44;;;;;;;15.17;13.67;;;14.20;99.90;;;;;;5017508;28;20454;-71
2023/04/28 11:52:13;;;;;;;15.83;14.23;;;14.20;99.90;;;;;;5017916;28;20447;-71
2023/04/28 11:54:42;;;;;;;15.40;13.90;;;14.20;99.90;;;;;;5017598;28;20459;-71
2023/04/28 11:57:18;;;;;;;14.27;12.97;;;14.20;99.90;;;;;;5017620;28;20435;-71
2023/04/28 11:59:46;;;;;;;14.23;12.90;;;14.20;99.90;;;;;;5017328;28;20438;-71
2023/04/28 12:02:23;;;;;;;13.90;12.50;;;14.20;99.90;;;;;;5017930;28;20440;-71
2023/04/28 12:04:53;;;;;;;17.63;12.50;;;14.30;99.90;;;;;;5017680;28;20526;-70
2023/04/28 12:07:21;;;;;;;14.70;12.33;;;14.40;99.90;;;;;;5018315;28;20436;-71
2023/04/28 12:10:10;;;;;;;14.73;12.37;;;14.40;99.90;;;;;;5018223;28;20440;-71
2023/04/28 12:12:39;;;;;;;14.53;12.80;;;14.50;99.90;;;;;;5017834;28;20439;-71
2023/04/28 12:15:19;;;;;;;13.93;12.63;;;14.60;99.90;;;;;;5018046;28;20832;-71
2023/04/28 12:17:49;;;;;;;13.80;12.30;;;14.70;99.90;;;;;;5017915;28;20440;-71
2023/04/28 12:20:35;;;;;;;14.30;13.03;;;14.80;99.90;;;;;;5017866;28;20543;-71
2023/04/28 12:23:04;;;;;;;14.67;13.17;;;14.90;99.90;;;;;;5018328;28;20500;-71
2023/04/28 12:25:43;;;;;;;14.30;12.90;;;15.00;99.90;;;;;;5016725;28;20447;-71
2023/04/28 12:28:11;;;;;;;14.93;13.50;;;15.00;99.90;;;;;;5017317;28;20913;-70
2023/04/28 12:30:40;;;;;;;14.13;12.77;;;15.00;99.90;;;;;;5015485;28;20462;-71
2023/04/28 12:33:23;;;;;;;15.23;13.23;;;15.10;99.90;;;;;;5017074;28;20495;-71
2023/04/28 12:35:55;;;;;;;14.73;13.17;;;15.10;99.90;;;;;;5016927;28;20443;-71
2023/04/28 12:38:24;;;;;;;14.60;13.20;;;15.10;99.90;;;;;;5017020;28;20471;-70
2023/04/28 12:40:52;;;;;;;15.63;13.23;;;15.10;99.90;;;;;;5016281;28;20444;-70
2023/04/28 12:43:22;;;;;;;14.73;13.23;;;15.20;99.90;;;;;;5014259;28;20908;-70
2023/04/28 12:45:51;;;;;;;13.97;12.67;;;15.20;99.90;;;;;;5014765;28;20535;-70
2023/04/28 12:48:22;;;;;;;14.07;12.67;;;15.30;99.90;;;;;;5015726;28;20463;-70
2023/04/28 12:50:50;;;;;;;13.43;12.13;;;15.30;99.90;;;;;;5014367;28;20865;-70
2023/04/28 12:53:20;;;;;;;13.63;12.43;;;15.40;99.90;;;;;;5015513;28;20459;-70
2023/04/28 12:55:48;;;;;;;14.47;12.87;;;15.50;99.90;;;;;;5015210;28;20847;-70